Time;durP1;ratioP1;P1;durP2;ratioP2;P2;SDS_P1;SDS_P2;PMS_P1;PMS_P2;Temp;Humidity;BMP_temperature;BMP_pressure;BME280_temperature;BME280_humidity;BME280_pressure;Samples;Min_cycle;Max_cycle;Signal;HPM_P1;HPM_P2
2022/11/16 00:01:14;;;;;;;16.42;11.55;;;9.90;99.90;;;;;;5129213;27;20070;-57
2022/11/16 00:03:41;;;;;;;17.45;11.45;;;9.90;99.90;;;;;;5129384;27;20049;-57
2022/11/16 00:06:08;;;;;;;30.02;16.27;;;9.90;99.90;;;;;;5130150;27;20042;-57
2022/11/16 00:08:36;;;;;;;20.08;12.30;;;9.90;99.90;;;;;;5129625;27;20064;-57
2022/11/16 00:11:14;;;;;;;15.50;11.23;;;9.90;99.90;;;;;;5129596;27;20050;-56
2022/11/16 00:13:41;;;;;;;20.75;12.45;;;9.80;99.90;;;;;;5129680;27;20038;-57
2022/11/16 00:16:12;;;;;;;18.00;11.00;;;9.90;99.90;;;;;;5129603;27;20127;-57
2022/11/16 00:18:37;;;;;;;22.17;13.27;;;10.70;99.90;;;;;;5128991;27;20043;-57
2022/11/16 00:21:04;;;;;;;15.68;11.85;;;9.90;99.90;;;;;;5129274;27;20076;-57
2022/11/16 00:23:30;;;;;;;20.75;12.00;;;9.90;99.90;;;;;;5110432;27;20880;-57
2022/11/16 00:26:05;;;;;;;14.27;11.63;;;9.90;99.90;;;;;;5129425;27;20050;-56
2022/11/16 00:28:31;;;;;;;16.98;11.65;;;9.90;99.90;;;;;;5129964;27;20085;-57
2022/11/16 00:31:02;;;;;;;16.38;11.45;;;9.90;99.90;;;;;;5129569;27;20039;-57
2022/11/16 00:33:28;;;;;;;16.13;11.25;;;10.00;99.90;;;;;;5129398;27;20402;-57
2022/11/16 00:35:54;;;;;;;20.45;12.45;;;9.90;99.90;;;;;;5129062;27;20074;-57
2022/11/16 00:38:20;;;;;;;25.23;14.05;;;9.90;99.90;;;;;;5110360;27;20151;-56
2022/11/16 00:40:46;;;;;;;20.23;13.27;;;10.00;99.90;;;;;;5128734;27;20599;-56
2022/11/16 00:43:11;;;;;;;17.88;11.18;;;10.60;99.90;;;;;;5128522;27;20066;-57
2022/11/16 00:45:39;;;;;;;16.15;11.65;;;10.00;99.90;;;;;;5128616;27;20043;-56
2022/11/16 00:48:05;;;;;;;17.58;11.98;;;10.20;99.90;;;;;;5129045;27;20377;-57
2022/11/16 00:50:31;;;;;;;14.82;10.95;;;10.00;99.90;;;;;;5128767;27;20079;-56
2022/11/16 00:52:56;;;;;;;23.55;13.35;;;9.90;99.90;;;;;;5128862;27;20123;-57
2022/11/16 00:55:22;;;;;;;17.98;11.40;;;10.00;99.90;;;;;;5129140;27;20085;-57
2022/11/16 00:57:48;;;;;;;20.48;11.82;;;9.90;99.90;;;;;;5128912;27;20035;-56
2022/11/16 01:00:14;;;;;;;15.82;9.95;;;10.00;99.90;;;;;;5129332;27;20047;-57
2022/11/16 01:02:40;;;;;;;19.90;11.90;;;10.00;99.90;;;;;;5129002;27;20186;-57
2022/11/16 01:05:08;;;;;;;14.60;10.63;;;10.30;99.90;;;;;;5110424;27;20528;-57
2022/11/16 01:07:35;;;;;;;13.73;9.40;;;10.00;99.90;;;;;;5128189;27;20087;-57
2022/11/16 01:10:04;;;;;;;12.20;9.13;;;10.00;99.90;;;;;;5128309;27;20039;-57
2022/11/16 01:12:29;;;;;;;17.98;10.63;;;10.00;99.90;;;;;;5128022;27;20039;-56
2022/11/16 01:14:55;;;;;;;18.02;10.80;;;9.90;99.90;;;;;;5128443;27;20041;-57
2022/11/16 01:17:21;;;;;;;23.00;12.32;;;9.90;99.90;;;;;;5128625;27;20058;-56
2022/11/16 01:19:46;;;;;;;15.45;10.15;;;10.00;99.90;;;;;;5128652;27;20054;-56
2022/11/16 01:22:12;;;;;;;17.48;10.57;;;10.00;99.90;;;;;;5128992;27;20069;-56
2022/11/16 01:24:38;;;;;;;19.02;9.95;;;10.00;99.90;;;;;;5128403;27;20365;-57
2022/11/16 01:27:03;;;;;;;17.92;10.55;;;10.10;99.90;;;;;;5128729;27;20049;-56
2022/11/16 01:29:30;;;;;;;20.95;10.55;;;11.10;99.90;;;;;;5126672;27;20070;-56
2022/11/16 01:31:57;;;;;;;16.30;9.35;;;10.60;99.90;;;;;;5109955;27;20051;-57
2022/11/16 01:34:23;;;;;;;14.60;9.65;;;10.00;99.90;;;;;;5127536;27;20761;-57
2022/11/16 01:36:48;;;;;;;13.25;8.90;;;10.10;99.90;;;;;;5128271;27;20039;-56
2022/11/16 01:39:15;;;;;;;13.73;9.48;;;10.20;99.90;;;;;;5128249;27;20534;-56
2022/11/16 01:41:42;;;;;;;16.83;9.60;;;10.40;99.90;;;;;;5128182;27;20035;-56
2022/11/16 01:44:14;;;;;;;12.07;7.65;;;10.10;99.90;;;;;;5128110;27;20039;-57
2022/11/16 01:46:41;;;;;;;13.43;8.75;;;10.10;99.90;;;;;;5108643;27;20401;-56
2022/11/16 01:49:15;;;;;;;15.10;9.45;;;10.10;99.90;;;;;;5128087;27;20129;-57
2022/11/16 01:51:46;;;;;;;13.07;8.90;;;10.20;99.90;;;;;;5125352;27;20134;-56
2022/11/16 01:54:13;;;;;;;11.68;8.45;;;10.20;99.90;;;;;;5128498;27;20509;-57
2022/11/16 01:56:42;;;;;;;21.45;9.82;;;10.20;99.90;;;;;;5128199;27;20035;-57
2022/11/16 01:59:08;;;;;;;13.20;8.43;;;10.20;99.90;;;;;;5128178;27;20038;-57
2022/11/16 02:01:34;;;;;;;14.35;9.00;;;10.50;99.90;;;;;;5127912;27;20761;-57
2022/11/16 02:04:00;;;;;;;15.00;8.75;;;10.10;99.90;;;;;;5128076;27;20096;-56
2022/11/16 02:06:44;;;;;;;11.82;8.25;;;10.40;99.90;;;;;;5127961;27;20403;-57
2022/11/16 02:09:56;;;;;;;15.57;8.50;;;10.20;99.90;;;;;;5128324;27;20046;-57
2022/11/16 02:12:40;;;;;;;11.75;8.05;;;10.20;99.90;;;;;;5127986;27;20061;-57
2022/11/16 02:15:24;;;;;;;18.10;8.88;;;10.20;99.90;;;;;;5128085;27;20047;-57
2022/11/16 02:18:21;;;;;;;17.23;9.63;;;10.20;99.90;;;;;;5109110;27;20045;-57
2022/11/16 02:20:56;;;;;;;24.10;10.90;;;10.10;99.90;;;;;;5127072;27;20769;-56
2022/11/16 02:23:42;;;;;;;23.45;10.27;;;10.10;99.90;;;;;;5127248;27;20118;-57
2022/11/16 02:26:14;;;;;;;23.23;10.68;;;10.10;99.90;;;;;;5127425;27;20120;-56
2022/11/16 02:28:47;;;;;;;28.03;12.33;;;10.10;99.90;;;;;;5108536;27;20039;-56
2022/11/16 02:31:19;;;;;;;35.63;13.00;;;10.10;99.90;;;;;;5127391;27;20293;-56
2022/11/16 02:33:47;;;;;;;17.63;9.93;;;10.20;99.90;;;;;;5127156;27;20397;-56
2022/11/16 02:36:19;;;;;;;21.38;11.15;;;10.50;99.90;;;;;;5127284;27;20475;-56
2022/11/16 02:38:54;;;;;;;20.30;11.25;;;10.10;99.90;;;;;;5127509;27;20564;-56
2022/11/16 02:41:22;;;;;;;14.43;9.27;;;10.10;99.90;;;;;;5127502;27;20043;-56
2022/11/16 02:43:58;;;;;;;27.33;11.50;;;10.10;99.90;;;;;;5126615;27;20035;-56
2022/11/16 02:46:34;;;;;;;18.40;10.68;;;10.10;99.90;;;;;;5126692;27;20480;-56
2022/11/16 02:49:04;;;;;;;24.98;11.68;;;10.10;99.90;;;;;;5126361;27;20074;-56
2022/11/16 02:51:31;;;;;;;20.02;10.82;;;10.10;99.90;;;;;;5126140;28;20068;-56
2022/11/16 02:54:02;;;;;;;19.65;11.27;;;10.10;99.90;;;;;;5126239;28;20046;-57
2022/11/16 02:56:28;;;;;;;45.25;15.32;;;10.10;99.90;;;;;;5126809;28;20039;-57
2022/11/16 02:58:56;;;;;;;17.45;10.68;;;10.00;99.90;;;;;;5126291;28;20797;-56
2022/11/16 03:01:39;;;;;;;18.95;11.75;;;10.20;99.90;;;;;;5126264;28;20099;-56
2022/11/16 03:04:32;;;;;;;20.13;11.05;;;10.10;99.90;;;;;;5126615;28;20074;-56
2022/11/16 03:07:03;;;;;;;20.85;11.65;;;10.00;99.90;;;;;;5125811;28;20082;-56
2022/11/16 03:09:34;;;;;;;31.88;14.68;;;10.00;99.90;;;;;;5126697;28;20059;-56
2022/11/16 03:12:04;;;;;;;28.20;12.68;;;10.00;99.90;;;;;;5126395;28;20115;-56
2022/11/16 03:14:48;;;;;;;27.85;12.93;;;7.30;99.90;;;;;;5108473;28;20118;-55
2022/11/16 03:17:32;;;;;;;18.15;10.48;;;10.00;99.90;;;;;;5126663;28;20117;-56
2022/11/16 03:20:10;;;;;;;20.90;12.13;;;11.30;99.90;;;;;;5126561;28;20138;-56
2022/11/16 03:23:10;;;;;;;19.77;10.98;;;10.00;99.90;;;;;;5108088;28;20058;-56
2022/11/16 03:25:50;;;;;;;21.33;10.80;;;10.00;99.90;;;;;;5112742;28;20062;-56
2022/11/16 03:28:19;;;;;;;28.67;13.88;;;10.00;99.90;;;;;;5108415;28;20422;-56
2022/11/16 03:31:00;;;;;;;28.65;14.38;;;10.00;99.90;;;;;;5126246;28;20043;-55
2022/11/16 03:33:27;;;;;;;19.02;11.18;;;10.10;99.90;;;;;;5126567;28;20039;-56
2022/11/16 03:36:10;;;;;;;25.23;12.57;;;11.00;99.90;;;;;;5126660;28;20138;-56
2022/11/16 03:38:39;;;;;;;25.50;12.25;;;10.00;99.90;;;;;;5126507;28;20408;-56
2022/11/16 03:41:08;;;;;;;50.97;15.85;;;9.90;99.90;;;;;;5125876;28;20055;-56
2022/11/16 03:43:35;;;;;;;25.23;13.85;;;10.50;99.90;;;;;;5126886;28;20575;-56
2022/11/16 03:46:01;;;;;;;24.35;14.20;;;9.90;99.90;;;;;;5126104;28;20043;-56
2022/11/16 03:48:38;;;;;;;35.58;15.18;;;9.80;99.90;;;;;;5126196;28;20426;-56
2022/11/16 03:51:05;;;;;;;30.17;14.55;;;10.00;99.90;;;;;;5125581;28;20777;-56
2022/11/16 03:53:31;;;;;;;48.17;17.52;;;10.00;99.90;;;;;;5126920;28;20110;-56
2022/11/16 03:55:57;;;;;;;30.52;16.13;;;9.90;99.90;;;;;;5126752;27;20134;-56
2022/11/16 03:58:22;;;;;;;21.73;13.88;;;9.90;99.90;;;;;;5129756;27;20063;-56
2022/11/16 04:00:48;;;;;;;22.98;13.25;;;9.90;99.90;;;;;;5130456;27;20043;-56
2022/11/16 04:03:14;;;;;;;36.17;14.95;;;9.90;99.90;;;;;;5130279;27;20131;-57
2022/11/16 04:25:11;;;;;;;46.33;17.48;;;9.90;99.90;;;;;;5129701;27;20061;-56
2022/11/16 04:30:21;;;;;;;27.65;15.43;;;9.90;99.90;;;;;;5129682;27;19954;-56
2022/11/16 04:38:16;;;;;;;42.83;19.40;;;9.80;99.90;;;;;;5129836;27;20046;-56
2022/11/16 04:40:42;;;;;;;28.83;16.77;;;9.90;99.90;;;;;;5129747;27;20047;-56
2022/11/16 04:43:08;;;;;;;34.00;17.73;;;9.80;99.90;;;;;;5129272;27;20420;-56
2022/11/16 04:48:18;;;;;;;45.72;19.75;;;10.40;99.90;;;;;;5129526;27;20572;-56
2022/11/16 04:50:46;;;;;;;36.08;19.08;;;9.80;99.90;;;;;;5129239;27;20416;-56
2022/11/16 04:53:12;;;;;;;42.67;20.40;;;10.20;99.90;;;;;;5129112;27;20042;-57
2022/11/16 04:55:38;;;;;;;48.20;22.65;;;10.00;99.90;;;;;;5129473;27;20057;-56
2022/11/16 04:58:04;;;;;;;42.75;20.80;;;10.90;99.90;;;;;;5128015;27;20596;-56
2022/11/16 05:00:29;;;;;;;34.75;18.90;;;9.80;99.90;;;;;;5129095;27;20043;-56
2022/11/16 05:02:55;;;;;;;34.05;18.83;;;9.80;99.90;;;;;;5129166;27;20043;-56
2022/11/16 05:05:21;;;;;;;45.95;21.35;;;10.00;99.90;;;;;;5128839;27;20039;-57
2022/11/16 05:07:47;;;;;;;65.53;24.65;;;9.80;99.90;;;;;;5128783;27;20050;-57
2022/11/16 05:10:13;;;;;;;81.68;27.30;;;9.80;99.90;;;;;;5128824;27;20039;-57
2022/11/16 05:12:39;;;;;;;30.60;19.15;;;9.80;99.90;;;;;;5128793;27;20372;-57
2022/11/16 05:15:06;;;;;;;37.38;20.70;;;10.10;99.90;;;;;;5128092;27;20054;-56
2022/11/16 05:17:32;;;;;;;68.95;25.52;;;7.40;99.90;;;;;;5128436;27;20798;-57
2022/11/16 05:22:42;;;;;;;58.70;25.27;;;9.80;99.90;;;;;;5128956;27;20146;-57
2022/11/16 05:25:09;;;;;;;36.15;20.10;;;9.80;99.90;;;;;;5128494;27;20458;-57
2022/11/16 05:27:36;;;;;;;44.05;22.90;;;9.80;99.90;;;;;;5128796;27;20797;-57
2022/11/16 05:30:05;;;;;;;41.60;22.98;;;9.80;99.90;;;;;;5128145;27;20500;-56
2022/11/16 05:32:31;;;;;;;39.65;21.30;;;9.80;99.90;;;;;;5128059;27;20651;-57
2022/11/16 05:34:56;;;;;;;36.92;20.95;;;9.80;99.90;;;;;;5128107;27;20046;-57
2022/11/16 05:37:25;;;;;;;45.97;23.50;;;9.80;99.90;;;;;;5109224;27;20050;-57
2022/11/16 05:39:52;;;;;;;48.75;24.30;;;9.90;99.90;;;;;;5128258;27;20043;-57
2022/11/16 05:42:17;;;;;;;79.28;29.02;;;9.90;99.90;;;;;;5127599;27;20043;-57
2022/11/16 05:44:43;;;;;;;50.05;23.90;;;9.80;99.90;;;;;;5128078;27;20035;-57
2022/11/16 05:47:09;;;;;;;47.63;24.65;;;10.00;99.90;;;;;;5126370;27;20577;-57
2022/11/16 05:49:34;;;;;;;88.30;29.90;;;9.90;99.90;;;;;;5127873;27;20069;-57
2022/11/16 05:52:00;;;;;;;46.80;23.67;;;8.40;99.90;;;;;;5127492;27;20519;-57
2022/11/16 05:54:26;;;;;;;47.03;23.45;;;9.90;99.90;;;;;;5127978;27;20416;-57
2022/11/16 05:56:53;;;;;;;67.55;26.23;;;10.40;99.90;;;;;;5109362;27;20043;-57
2022/11/16 05:59:21;;;;;;;41.20;22.73;;;9.80;99.90;;;;;;5127440;27;20127;-57
2022/11/16 06:01:47;;;;;;;77.63;29.65;;;9.80;99.90;;;;;;5127541;27;20360;-57
2022/11/16 06:04:13;;;;;;;42.83;23.80;;;9.80;99.90;;;;;;5108451;27;20049;-57
2022/11/16 06:06:39;;;;;;;60.70;27.00;;;9.80;99.90;;;;;;5127636;27;20058;-57
2022/11/16 06:09:05;;;;;;;109.75;32.13;;;9.90;99.90;;;;;;5108696;27;20092;-57
2022/11/16 06:11:32;;;;;;;45.85;24.70;;;9.80;99.90;;;;;;5109115;27;20050;-57
2022/11/16 06:13:58;;;;;;;56.65;26.20;;;9.80;99.90;;;;;;5127897;27;20043;-57
2022/11/16 06:16:23;;;;;;;71.15;28.92;;;10.30;99.90;;;;;;5127337;27;20738;-57
2022/11/16 06:18:49;;;;;;;121.47;35.20;;;9.80;99.90;;;;;;5127561;27;20169;-57
2022/11/16 06:21:17;;;;;;;51.65;26.27;;;9.80;99.90;;;;;;5127099;27;20062;-57
2022/11/16 06:23:42;;;;;;;87.65;30.70;;;9.80;99.90;;;;;;5127458;27;20524;-57
2022/11/16 06:26:08;;;;;;;63.38;29.45;;;9.80;99.90;;;;;;5109022;27;20051;-57
2022/11/16 06:28:34;;;;;;;84.07;31.70;;;10.50;99.90;;;;;;5109087;27;20141;-57
2022/11/16 06:31:00;;;;;;;53.63;27.02;;;10.20;99.90;;;;;;5109239;27;20058;-57
2022/11/16 06:33:26;;;;;;;56.60;28.17;;;9.80;99.90;;;;;;5127259;27;20049;-57
2022/11/16 06:35:52;;;;;;;65.90;28.75;;;9.80;99.90;;;;;;5126970;27;20039;-57
2022/11/16 06:38:18;;;;;;;73.75;31.20;;;10.70;99.90;;;;;;5127070;27;20031;-57
2022/11/16 06:40:48;;;;;;;121.80;35.35;;;9.80;99.90;;;;;;5127150;27;20039;-57
2022/11/16 06:43:14;;;;;;;76.28;29.65;;;10.50;99.90;;;;;;5127110;27;20054;-57
2022/11/16 06:45:39;;;;;;;108.53;33.05;;;9.80;99.90;;;;;;5108833;28;20042;-57
2022/11/16 06:48:05;;;;;;;84.03;31.13;;;9.80;99.90;;;;;;5127126;27;20066;-57
2022/11/16 06:50:31;;;;;;;81.22;30.73;;;9.80;99.90;;;;;;5126799;27;20425;-56
2022/11/16 06:52:59;;;;;;;208.93;42.63;;;12.00;99.90;;;;;;5127290;28;20066;-57
2022/11/16 06:55:25;;;;;;;100.95;32.25;;;10.10;99.90;;;;;;5127179;28;20043;-57
2022/11/16 06:57:51;;;;;;;108.05;32.35;;;10.20;99.90;;;;;;5127212;28;20043;-57
2022/11/16 07:00:17;;;;;;;148.45;36.83;;;10.20;99.90;;;;;;5126919;28;20057;-57
2022/11/16 07:02:43;;;;;;;116.65;35.67;;;9.80;99.90;;;;;;5126626;28;20547;-57
2022/11/16 07:05:09;;;;;;;145.45;35.35;;;9.80;99.90;;;;;;5126743;28;20164;-57
2022/11/16 07:07:34;;;;;;;153.57;36.33;;;11.10;99.90;;;;;;5126797;28;20074;-57
2022/11/16 07:10:00;;;;;;;84.78;30.08;;;10.20;99.90;;;;;;5127240;28;20043;-57
2022/11/16 07:12:26;;;;;;;71.57;29.33;;;9.80;99.90;;;;;;5127441;28;20083;-57
2022/11/16 07:14:51;;;;;;;90.90;32.45;;;10.60;99.90;;;;;;5127160;28;20579;-57
2022/11/16 07:17:17;;;;;;;188.05;39.97;;;9.90;99.90;;;;;;5108528;28;20907;-57
2022/11/16 07:19:43;;;;;;;55.88;28.38;;;9.90;99.90;;;;;;5126918;28;20427;-57
2022/11/16 07:22:08;;;;;;;131.60;34.17;;;9.90;99.90;;;;;;5108674;28;20138;-57
2022/11/16 07:24:34;;;;;;;110.63;32.20;;;9.90;99.90;;;;;;5126686;28;20492;-57
2022/11/16 07:27:00;;;;;;;88.38;29.77;;;9.80;99.90;;;;;;5091961;28;20039;-57
2022/11/16 07:29:25;;;;;;;70.65;27.45;;;9.90;99.90;;;;;;5127013;28;20131;-57
2022/11/16 07:31:51;;;;;;;56.72;25.55;;;9.80;99.90;;;;;;5127486;27;20461;-57
2022/11/16 07:34:17;;;;;;;97.05;29.50;;;9.80;99.90;;;;;;5130769;27;20039;-57
2022/11/16 07:36:43;;;;;;;71.60;29.25;;;10.00;99.90;;;;;;5130902;27;20517;-57
2022/11/16 07:39:09;;;;;;;66.95;28.05;;;9.90;99.90;;;;;;5130602;27;20504;-57
2022/11/16 07:41:35;;;;;;;66.78;27.50;;;10.00;99.90;;;;;;5128850;27;20043;-57
2022/11/16 07:44:01;;;;;;;45.72;24.48;;;9.80;99.90;;;;;;5130517;27;20043;-57
2022/11/16 07:46:26;;;;;;;112.47;30.70;;;9.80;99.90;;;;;;5130187;27;20038;-57
2022/11/16 07:48:52;;;;;;;64.80;27.08;;;9.80;99.90;;;;;;5130686;27;20123;-57
2022/11/16 07:51:19;;;;;;;46.47;24.27;;;9.80;99.90;;;;;;5129871;27;20081;-57
2022/11/16 07:53:45;;;;;;;53.80;24.58;;;9.80;99.90;;;;;;5130241;27;20123;-57
2022/11/16 07:56:11;;;;;;;44.53;23.23;;;9.80;99.90;;;;;;5130087;27;20369;-57
2022/11/16 07:58:38;;;;;;;99.93;27.15;;;9.80;99.90;;;;;;5129570;27;20035;-57
2022/11/16 08:01:08;;;;;;;90.75;26.30;;;9.90;99.90;;;;;;5130555;27;20039;-58
2022/11/16 08:03:34;;;;;;;54.38;22.23;;;9.80;99.90;;;;;;5110948;27;20043;-57
2022/11/16 08:06:03;;;;;;;21.48;13.70;;;9.80;99.90;;;;;;5130205;27;20050;-57
2022/11/16 08:08:29;;;;;;;50.80;17.88;;;9.80;99.90;;;;;;5130089;27;20043;-57
2022/11/16 08:11:06;;;;;;;26.80;15.70;;;10.30;99.90;;;;;;5111404;27;20108;-57
2022/11/16 08:13:33;;;;;;;85.18;22.88;;;10.60;99.90;;;;;;5128802;27;20050;-57
2022/11/16 08:16:09;;;;;;;24.65;15.68;;;10.40;99.90;;;;;;5111491;27;20139;-57
2022/11/16 08:18:36;;;;;;;30.65;17.80;;;10.20;99.90;;;;;;5129773;27;20128;-57
2022/11/16 08:21:03;;;;;;;83.90;26.65;;;9.80;99.90;;;;;;5130220;27;20049;-57
2022/11/16 08:23:30;;;;;;;38.53;21.33;;;9.80;99.90;;;;;;5129649;27;20062;-57
2022/11/16 08:26:01;;;;;;;119.38;30.88;;;10.00;99.90;;;;;;5129743;27;20515;-57
2022/11/16 08:28:28;;;;;;;96.07;29.30;;;9.80;99.90;;;;;;5110585;27;20142;-57
2022/11/16 08:30:54;;;;;;;45.28;24.73;;;9.80;99.90;;;;;;5110624;27;20531;-58
2022/11/16 08:33:20;;;;;;;50.38;26.85;;;9.70;99.90;;;;;;5128014;27;20071;-57
2022/11/16 08:35:49;;;;;;;175.20;37.85;;;9.80;99.90;;;;;;5128126;27;20112;-57
2022/11/16 08:38:15;;;;;;;122.93;34.88;;;10.30;99.90;;;;;;5128894;27;20035;-57
2022/11/16 08:40:40;;;;;;;50.15;27.83;;;9.80;99.90;;;;;;5128611;27;20429;-57
2022/11/16 08:43:06;;;;;;;54.95;28.67;;;10.70;99.90;;;;;;5128500;27;20666;-57
2022/11/16 08:45:35;;;;;;;102.00;33.92;;;9.90;99.90;;;;;;5128420;27;20046;-57
2022/11/16 08:48:00;;;;;;;54.63;27.98;;;9.90;99.90;;;;;;5129000;27;20053;-57
2022/11/16 08:50:26;;;;;;;132.23;34.88;;;9.90;99.90;;;;;;5128996;27;20051;-57
2022/11/16 08:52:52;;;;;;;62.97;30.08;;;10.10;99.90;;;;;;5128623;27;20066;-57
2022/11/16 08:55:18;;;;;;;55.90;29.02;;;10.70;99.90;;;;;;5129149;27;20043;-57
2022/11/16 08:57:44;;;;;;;108.38;35.17;;;10.00;99.90;;;;;;5129116;27;20599;-57
2022/11/16 09:00:10;;;;;;;81.78;31.88;;;10.10;99.90;;;;;;5129491;27;20046;-57
2022/11/16 09:02:36;;;;;;;71.68;31.27;;;10.10;99.90;;;;;;5128687;27;20051;-56
2022/11/16 09:05:03;;;;;;;61.42;29.95;;;10.10;99.90;;;;;;5129234;27;20042;-57
2022/11/16 09:07:29;;;;;;;63.70;29.80;;;10.20;99.90;;;;;;5128384;27;20072;-57
2022/11/16 09:09:54;;;;;;;62.40;28.65;;;10.10;99.90;;;;;;5129163;27;20051;-57
2022/11/16 09:12:20;;;;;;;167.80;41.00;;;10.20;99.90;;;;;;5110189;27;20046;-57
2022/11/16 09:14:46;;;;;;;83.05;33.78;;;11.10;99.90;;;;;;5128678;27;20039;-57
2022/11/16 09:17:11;;;;;;;54.28;28.45;;;10.10;99.90;;;;;;5128762;27;20067;-57
2022/11/16 09:19:37;;;;;;;110.90;35.03;;;10.30;99.90;;;;;;5110121;27;20042;-57
2022/11/16 09:22:03;;;;;;;194.68;41.75;;;10.30;99.90;;;;;;5128844;27;20481;-57
2022/11/16 09:24:29;;;;;;;119.50;35.28;;;10.30;99.90;;;;;;5127950;27;20567;-57
2022/11/16 09:26:56;;;;;;;86.57;33.45;;;10.30;99.90;;;;;;5128172;27;20054;-57
2022/11/16 09:29:22;;;;;;;76.45;32.80;;;10.40;99.90;;;;;;5110026;27;20035;-58
2022/11/16 09:31:47;;;;;;;64.10;31.02;;;10.40;99.90;;;;;;5128266;27;20769;-58
2022/11/16 09:34:13;;;;;;;116.63;36.92;;;10.40;99.90;;;;;;5128392;27;20043;-57
2022/11/16 09:36:39;;;;;;;56.38;30.52;;;10.80;99.90;;;;;;5128773;27;20484;-57
2022/11/16 09:39:04;;;;;;;180.55;41.08;;;10.50;99.90;;;;;;5128940;27;20046;-57
2022/11/16 09:41:52;;;;;;;52.90;29.45;;;10.60;99.90;;;;;;5128859;27;20035;-57
2022/11/16 09:44:40;;;;;;;56.80;29.85;;;10.50;99.90;;;;;;5043453;27;20049;-57
2022/11/16 09:47:20;;;;;;;56.08;30.20;;;10.60;99.90;;;;;;5043391;28;20148;-57
2022/11/16 09:49:54;;;;;;;69.43;32.78;;;10.50;99.90;;;;;;5043980;28;20052;-57
2022/11/16 09:52:54;;;;;;;55.95;28.65;;;10.80;99.90;;;;;;5043488;28;20851;-57
2022/11/16 09:55:37;;;;;;;100.15;34.60;;;11.10;99.90;;;;;;5019627;28;20052;-56
2022/11/16 09:58:11;;;;;;;77.18;32.80;;;11.60;99.90;;;;;;5043350;28;20723;-57
2022/11/16 10:00:42;;;;;;;221.32;43.90;;;11.30;99.90;;;;;;5043402;28;20040;-57
2022/11/16 10:03:13;;;;;;;81.85;35.15;;;11.80;99.90;;;;;;5041936;28;20082;-57
2022/11/16 10:06:03;;;;;;;96.57;36.03;;;12.00;99.90;;;;;;5043463;28;20040;-57
2022/11/16 10:08:57;;;;;;;109.13;37.83;;;11.20;99.90;;;;;;5025919;28;20045;-57
2022/11/16 10:11:47;;;;;;;75.18;32.30;;;11.10;99.90;;;;;;5026070;28;20045;-57
2022/11/16 10:14:40;;;;;;;83.82;33.22;;;10.80;99.90;;;;;;5043548;28;20071;-57
2022/11/16 10:17:23;;;;;;;142.00;39.13;;;11.20;99.90;;;;;;5025437;28;20571;-58
2022/11/16 10:20:09;;;;;;;68.22;32.35;;;11.10;99.90;;;;;;5025409;28;20616;-58
2022/11/16 10:23:22;;;;;;;59.92;31.17;;;11.20;99.90;;;;;;5043318;28;20048;-57
2022/11/16 10:25:56;;;;;;;89.18;34.70;;;11.40;99.90;;;;;;5010944;28;20049;-57
2022/11/16 10:28:31;;;;;;;67.80;33.40;;;11.30;99.90;;;;;;5044338;28;20116;-56
2022/11/16 10:31:29;;;;;;;83.65;35.50;;;11.70;99.90;;;;;;5043229;28;20562;-57
2022/11/16 10:33:57;;;;;;;59.22;32.35;;;11.80;99.90;;;;;;5043512;28;20107;-57
2022/11/16 10:36:28;;;;;;;60.60;30.73;;;12.00;99.90;;;;;;5043431;28;20041;-57
2022/11/16 10:38:59;;;;;;;76.07;31.70;;;12.30;99.90;;;;;;5025340;28;20052;-57
2022/11/16 10:41:32;;;;;;;94.37;33.17;;;12.00;99.90;;;;;;5043482;28;20049;-55
2022/11/16 10:43:59;;;;;;;49.20;27.58;;;11.70;99.90;;;;;;5015927;28;20053;-62
2022/11/16 10:46:34;;;;;;;125.75;33.78;;;11.70;99.90;;;;;;5039254;28;20124;-65
2022/11/16 10:49:21;;;;;;;57.65;27.50;;;12.10;99.90;;;;;;5024157;28;20049;-57
2022/11/16 10:51:47;;;;;;;127.57;33.63;;;11.70;99.90;;;;;;5056983;28;20060;-60
2022/11/16 10:54:14;;;;;;;57.40;25.52;;;12.50;99.90;;;;;;5024092;28;20386;-60
2022/11/16 10:56:44;;;;;;;61.05;23.90;;;12.00;99.90;;;;;;5041882;28;20788;-59
2022/11/16 10:59:12;;;;;;;47.47;22.60;;;12.60;99.90;;;;;;5024343;28;20049;-60
2022/11/16 11:01:49;;;;;;;48.03;23.42;;;12.20;99.90;;;;;;5041302;28;20044;-62
2022/11/16 11:04:28;;;;;;;40.00;20.98;;;12.30;99.90;;;;;;5024075;28;20071;-62
2022/11/16 11:07:15;;;;;;;37.22;20.95;;;14.20;99.90;;;;;;5026633;28;20781;-54
2022/11/16 11:09:42;;;;;;;91.63;26.17;;;12.60;99.90;;;;;;5038411;28;20067;-62
2022/11/16 11:15:14;;;;;;;57.40;19.25;;;12.60;99.90;;;;;;5027278;28;20041;-55
2022/11/16 11:17:46;;;;;;;39.10;17.15;;;12.60;99.90;;;;;;5027572;28;20103;-58
2022/11/16 11:20:15;;;;;;;54.88;18.45;;;11.80;99.90;;;;;;5045926;28;20048;-56
2022/11/16 11:22:52;;;;;;;22.75;13.80;;;11.70;99.90;;;;;;5027355;28;20057;-55
2022/11/16 11:25:25;;;;;;;22.63;13.75;;;11.60;99.90;;;;;;5045775;28;20094;-56
2022/11/16 11:28:02;;;;;;;23.98;12.60;;;11.50;99.90;;;;;;5060954;28;20053;-59
2022/11/16 11:30:28;;;;;;;48.97;17.40;;;11.40;99.90;;;;;;5027302;28;20060;-59
2022/11/16 11:32:54;;;;;;;24.27;12.98;;;11.60;99.90;;;;;;5045446;28;20787;-58
2022/11/16 11:35:29;;;;;;;21.08;12.23;;;11.30;99.90;;;;;;5045369;28;20044;-59
2022/11/16 11:38:02;;;;;;;38.33;15.70;;;11.20;99.90;;;;;;5045209;28;20083;-54
2022/11/16 11:40:28;;;;;;;;;;;11.20;99.90;;;;;;5046048;28;20079;-54
2022/11/16 11:43:05;;;;;;;27.85;13.02;;;11.30;99.90;;;;;;5048721;28;19956;-56
2022/11/16 11:45:47;;;;;;;25.55;12.38;;;11.20;99.90;;;;;;5043957;28;20072;-57
2022/11/16 11:48:39;;;;;;;16.13;9.23;;;11.50;99.90;;;;;;5045438;28;20051;-57
2022/11/16 11:51:19;;;;;;;;;;;11.20;99.90;;;;;;5045237;28;20540;-57
2022/11/16 11:53:56;;;;;;;13.70;8.05;;;11.20;99.90;;;;;;5043885;28;20384;-57
2022/11/16 11:56:24;;;;;;;21.83;9.75;;;11.30;99.90;;;;;;5044623;28;20064;-59
2022/11/16 11:58:50;;;;;;;15.55;8.10;;;11.50;99.90;;;;;;5044555;28;20029;-57
2022/11/16 12:01:54;;;;;;;27.48;11.45;;;11.50;99.90;;;;;;5043587;28;20052;-57
2022/11/16 12:04:45;;;;;;;20.92;9.60;;;11.70;99.90;;;;;;5043814;28;20118;-58
2022/11/16 12:07:22;;;;;;;14.48;8.43;;;11.70;99.90;;;;;;5045492;28;20620;-61
2022/11/16 12:10:12;;;;;;;15.50;7.13;;;11.70;99.90;;;;;;5043163;28;20056;-62
2022/11/16 12:13:11;;;;;;;17.38;7.57;;;11.80;99.90;;;;;;5043669;28;20102;-61
2022/11/16 12:16:09;;;;;;;21.90;8.18;;;11.90;99.90;;;;;;5044559;28;20032;-63
2022/11/16 12:18:54;;;;;;;12.70;5.28;;;11.90;99.90;;;;;;5042654;28;20107;-63
2022/11/16 12:21:38;;;;;;;15.02;4.80;;;11.80;99.90;;;;;;5043271;28;20095;-62
2022/11/16 12:24:25;;;;;;;14.77;5.13;;;11.70;99.90;;;;;;5043955;28;20787;-63
2022/11/16 12:27:08;;;;;;;10.40;4.72;;;11.80;99.90;;;;;;5042849;28;20049;-63
2022/11/16 12:29:37;;;;;;;14.18;4.03;;;11.90;99.90;;;;;;5043107;28;20037;-61
2022/11/16 12:32:40;;;;;;;9.75;3.95;;;11.90;99.90;;;;;;5042624;28;20712;-62
2022/11/16 12:35:30;;;;;;;13.63;5.00;;;12.00;99.90;;;;;;5043512;28;20128;-60
2022/11/16 12:38:06;;;;;;;11.75;4.88;;;11.90;99.90;;;;;;5042153;28;20044;-58
2022/11/16 12:40:53;;;;;;;13.18;5.82;;;12.00;99.90;;;;;;5025062;28;20067;-60
2022/11/16 12:43:30;;;;;;;12.55;4.55;;;12.00;99.90;;;;;;5029987;28;20053;-62
2022/11/16 12:46:34;;;;;;;15.30;5.32;;;12.00;99.90;;;;;;5042310;28;20053;-62
2022/11/16 12:49:31;;;;;;;8.43;3.95;;;12.00;99.90;;;;;;5040139;28;20083;-56
2022/11/16 12:52:11;;;;;;;8.70;3.03;;;11.90;99.90;;;;;;5039803;28;20061;-58
2022/11/16 12:54:45;;;;;;;13.80;3.70;;;11.80;99.90;;;;;;5054096;28;20130;-59
2022/11/16 12:57:37;;;;;;;13.13;3.30;;;11.70;99.90;;;;;;5043095;28;20044;-57
2022/11/16 13:00:03;;;;;;;11.27;2.75;;;11.70;99.90;;;;;;5042390;28;20037;-63
2022/11/16 13:02:47;;;;;;;8.85;1.85;;;11.60;99.90;;;;;;5043905;28;20052;-58
2022/11/16 13:05:37;;;;;;;5.25;1.70;;;11.50;99.90;;;;;;5042272;28;20048;-56
2022/11/16 13:08:17;;;;;;;12.48;2.20;;;11.40;99.90;;;;;;5043100;28;20125;-57
2022/11/16 13:10:45;;;;;;;9.85;2.35;;;11.30;99.90;;;;;;5058666;28;20138;-56
2022/11/16 13:13:16;;;;;;;9.40;1.67;;;11.10;99.90;;;;;;5041995;28;20094;-58
2022/11/16 13:15:45;;;;;;;10.90;3.08;;;11.00;99.90;;;;;;5042155;28;20044;-58
2022/11/16 13:18:17;;;;;;;20.77;2.97;;;10.90;99.90;;;;;;5024435;28;20859;-59
2022/11/16 13:21:01;;;;;;;7.68;2.83;;;11.20;99.90;;;;;;5041777;28;20045;-58
2022/11/16 13:23:29;;;;;;;12.27;2.90;;;10.60;99.90;;;;;;5043520;28;20049;-55
2022/11/16 13:26:14;;;;;;;8.95;2.70;;;10.70;99.90;;;;;;5042832;28;20049;-57
2022/11/16 13:28:48;;;;;;;8.40;2.03;;;11.60;99.90;;;;;;5043790;28;20040;-58
2022/11/16 13:31:18;;;;;;;9.75;2.58;;;10.60;99.90;;;;;;5041817;28;20060;-59